sensor_id;sensor_type;location;lat;lon;timestamp;temperature;humidity
45765;DHT22;31474;45.332;10.230;2023-07-02T00:01:22;23.60;99.90
45765;DHT22;31474;45.332;10.230;2023-07-02T00:03:48;23.60;99.90
45765;DHT22;31474;45.332;10.230;2023-07-02T00:06:14;23.60;99.90
45765;DHT22;31474;45.332;10.230;2023-07-02T00:08:39;23.60;99.90
45765;DHT22;31474;45.332;10.230;2023-07-02T00:11:06;23.60;99.90
45765;DHT22;31474;45.332;10.230;2023-07-02T00:13:31;23.50;99.90
45765;DHT22;31474;45.332;10.230;2023-07-02T00:15:57;23.40;99.90
45765;DHT22;31474;45.332;10.230;2023-07-02T00:18:24;23.40;99.90
45765;DHT22;31474;45.332;10.230;2023-07-02T00:21:02;23.30;99.90
45765;DHT22;31474;45.332;10.230;2023-07-02T00:23:30;23.30;99.90
45765;DHT22;31474;45.332;10.230;2023-07-02T00:25:59;23.20;99.90
45765;DHT22;31474;45.332;10.230;2023-07-02T00:28:24;23.20;99.90
45765;DHT22;31474;45.332;10.230;2023-07-02T00:30:50;23.20;99.90
45765;DHT22;31474;45.332;10.230;2023-07-02T00:33:16;23.10;99.90
45765;DHT22;31474;45.332;10.230;2023-07-02T00:35:42;23.10;99.90
45765;DHT22;31474;45.332;10.230;2023-07-02T00:38:07;23.10;99.90
45765;DHT22;31474;45.332;10.230;2023-07-02T00:40:33;23.10;99.90
45765;DHT22;31474;45.332;10.230;2023-07-02T00:42:58;23.20;99.90
45765;DHT22;31474;45.332;10.230;2023-07-02T00:45:24;23.20;99.90
45765;DHT22;31474;45.332;10.230;2023-07-02T00:47:54;23.20;99.90
45765;DHT22;31474;45.332;10.230;2023-07-02T00:50:22;23.10;99.90
45765;DHT22;31474;45.332;10.230;2023-07-02T00:52:48;23.10;99.90
45765;DHT22;31474;45.332;10.230;2023-07-02T00:55:13;23.10;99.90
45765;DHT22;31474;45.332;10.230;2023-07-02T00:57:39;23.10;99.90
45765;DHT22;31474;45.332;10.230;2023-07-02T01:00:07;23.00;99.90
45765;DHT22;31474;45.332;10.230;2023-07-02T01:02:33;23.00;99.90
45765;DHT22;31474;45.332;10.230;2023-07-02T01:04:59;23.00;99.90
45765;DHT22;31474;45.332;10.230;2023-07-02T01:07:25;23.00;99.90
45765;DHT22;31474;45.332;10.230;2023-07-02T01:09:51;22.90;99.90
45765;DHT22;31474;45.332;10.230;2023-07-02T01:12:17;23.00;99.90
45765;DHT22;31474;45.332;10.230;2023-07-02T01:14:48;22.90;99.90
45765;DHT22;31474;45.332;10.230;2023-07-02T01:17:17;22.90;99.90
45765;DHT22;31474;45.332;10.230;2023-07-02T01:19:50;22.90;99.90
45765;DHT22;31474;45.332;10.230;2023-07-02T01:22:20;22.90;99.90
45765;DHT22;31474;45.332;10.230;2023-07-02T01:24:46;22.90;99.90
45765;DHT22;31474;45.332;10.230;2023-07-02T01:27:14;22.90;99.90
45765;DHT22;31474;45.332;10.230;2023-07-02T01:29:40;22.80;99.90
45765;DHT22;31474;45.332;10.230;2023-07-02T01:32:06;22.80;99.90
45765;DHT22;31474;45.332;10.230;2023-07-02T01:34:33;22.80;99.90
45765;DHT22;31474;45.332;10.230;2023-07-02T01:37:00;22.80;99.90
45765;DHT22;31474;45.332;10.230;2023-07-02T01:39:25;22.80;99.90
45765;DHT22;31474;45.332;10.230;2023-07-02T01:41:53;22.80;99.90
45765;DHT22;31474;45.332;10.230;2023-07-02T01:44:19;22.90;99.90
45765;DHT22;31474;45.332;10.230;2023-07-02T01:46:45;22.90;99.90
45765;DHT22;31474;45.332;10.230;2023-07-02T01:49:18;22.90;99.90
45765;DHT22;31474;45.332;10.230;2023-07-02T01:51:48;22.80;99.90
45765;DHT22;31474;45.332;10.230;2023-07-02T01:54:14;22.80;99.90
45765;DHT22;31474;45.332;10.230;2023-07-02T01:56:40;22.70;99.90
45765;DHT22;31474;45.332;10.230;2023-07-02T01:59:05;22.70;99.90
45765;DHT22;31474;45.332;10.230;2023-07-02T02:01:31;22.70;99.90
45765;DHT22;31474;45.332;10.230;2023-07-02T02:03:58;22.70;99.90
45765;DHT22;31474;45.332;10.230;2023-07-02T02:06:24;22.60;99.90
45765;DHT22;31474;45.332;10.230;2023-07-02T02:08:49;22.50;99.90
45765;DHT22;31474;45.332;10.230;2023-07-02T02:11:15;22.40;99.90
45765;DHT22;31474;45.332;10.230;2023-07-02T02:13:41;22.40;99.90
45765;DHT22;31474;45.332;10.230;2023-07-02T02:16:06;22.40;99.90
45765;DHT22;31474;45.332;10.230;2023-07-02T02:18:32;22.40;99.90
45765;DHT22;31474;45.332;10.230;2023-07-02T02:20:58;22.40;99.90
45765;DHT22;31474;45.332;10.230;2023-07-02T02:23:23;22.30;99.90
45765;DHT22;31474;45.332;10.230;2023-07-02T02:25:49;22.40;99.90
45765;DHT22;31474;45.332;10.230;2023-07-02T02:28:15;22.40;99.90
45765;DHT22;31474;45.332;10.230;2023-07-02T02:30:40;22.40;99.90
45765;DHT22;31474;45.332;10.230;2023-07-02T02:33:06;22.40;99.90
45765;DHT22;31474;45.332;10.230;2023-07-02T02:35:32;22.40;99.90
45765;DHT22;31474;45.332;10.230;2023-07-02T02:37:57;22.40;99.90
45765;DHT22;31474;45.332;10.230;2023-07-02T02:40:23;22.40;99.90
45765;DHT22;31474;45.332;10.230;2023-07-02T02:42:49;22.40;99.90
45765;DHT22;31474;45.332;10.230;2023-07-02T02:45:14;22.40;99.90
45765;DHT22;31474;45.332;10.230;2023-07-02T02:47:40;22.30;99.90
45765;DHT22;31474;45.332;10.230;2023-07-02T02:50:06;22.30;99.90
45765;DHT22;31474;45.332;10.230;2023-07-02T02:52:32;22.40;99.90
45765;DHT22;31474;45.332;10.230;2023-07-02T02:54:58;22.40;99.90
45765;DHT22;31474;45.332;10.230;2023-07-02T02:57:24;22.40;99.90
45765;DHT22;31474;45.332;10.230;2023-07-02T02:59:49;22.30;99.90
45765;DHT22;31474;45.332;10.230;2023-07-02T03:02:15;22.30;99.90
45765;DHT22;31474;45.332;10.230;2023-07-02T03:04:41;22.20;99.90
45765;DHT22;31474;45.332;10.230;2023-07-02T03:07:09;22.20;99.90
45765;DHT22;31474;45.332;10.230;2023-07-02T03:09:35;22.20;99.90
45765;DHT22;31474;45.332;10.230;2023-07-02T03:12:00;22.30;99.90
45765;DHT22;31474;45.332;10.230;2023-07-02T03:14:26;22.20;99.90
45765;DHT22;31474;45.332;10.230;2023-07-02T03:16:52;22.30;99.90
45765;DHT22;31474;45.332;10.230;2023-07-02T03:19:17;22.30;99.90
45765;DHT22;31474;45.332;10.230;2023-07-02T03:21:43;22.30;99.90
45765;DHT22;31474;45.332;10.230;2023-07-02T03:24:09;22.30;99.90
45765;DHT22;31474;45.332;10.230;2023-07-02T03:26:42;22.30;99.90
45765;DHT22;31474;45.332;10.230;2023-07-02T03:29:08;22.20;99.90
45765;DHT22;31474;45.332;10.230;2023-07-02T03:31:34;22.10;99.90
45765;DHT22;31474;45.332;10.230;2023-07-02T03:34:03;22.20;99.90
45765;DHT22;31474;45.332;10.230;2023-07-02T03:36:30;22.20;99.90
45765;DHT22;31474;45.332;10.230;2023-07-02T03:38:55;22.30;99.90
45765;DHT22;31474;45.332;10.230;2023-07-02T03:41:21;22.30;99.90
45765;DHT22;31474;45.332;10.230;2023-07-02T03:43:46;22.20;99.90
45765;DHT22;31474;45.332;10.230;2023-07-02T03:46:13;22.30;99.90
45765;DHT22;31474;45.332;10.230;2023-07-02T03:48:39;22.30;99.90
45765;DHT22;31474;45.332;10.230;2023-07-02T03:51:05;22.30;99.90
45765;DHT22;31474;45.332;10.230;2023-07-02T03:53:31;22.20;99.90
45765;DHT22;31474;45.332;10.230;2023-07-02T03:55:57;22.20;99.90
45765;DHT22;31474;45.332;10.230;2023-07-02T03:58:22;22.30;99.90
45765;DHT22;31474;45.332;10.230;2023-07-02T04:00:48;22.30;99.90
45765;DHT22;31474;45.332;10.230;2023-07-02T04:03:17;22.30;99.90
45765;DHT22;31474;45.332;10.230;2023-07-02T04:05:43;22.30;99.90
45765;DHT22;31474;45.332;10.230;2023-07-02T04:08:09;22.40;99.90
45765;DHT22;31474;45.332;10.230;2023-07-02T04:10:34;22.40;99.90
45765;DHT22;31474;45.332;10.230;2023-07-02T04:13:00;22.30;99.90
45765;DHT22;31474;45.332;10.230;2023-07-02T04:15:26;22.30;99.90
45765;DHT22;31474;45.332;10.230;2023-07-02T04:17:52;22.30;99.90
45765;DHT22;31474;45.332;10.230;2023-07-02T04:20:21;22.40;99.90
45765;DHT22;31474;45.332;10.230;2023-07-02T04:22:47;22.40;99.90
45765;DHT22;31474;45.332;10.230;2023-07-02T04:25:15;22.40;99.90
45765;DHT22;31474;45.332;10.230;2023-07-02T04:27:41;22.50;99.90
45765;DHT22;31474;45.332;10.230;2023-07-02T04:30:11;22.50;99.90
45765;DHT22;31474;45.332;10.230;2023-07-02T04:32:37;22.40;99.90
45765;DHT22;31474;45.332;10.230;2023-07-02T04:35:09;22.40;99.90
45765;DHT22;31474;45.332;10.230;2023-07-02T04:37:36;22.40;99.90
45765;DHT22;31474;45.332;10.230;2023-07-02T04:40:02;22.50;99.90
45765;DHT22;31474;45.332;10.230;2023-07-02T04:42:36;22.50;99.90
45765;DHT22;31474;45.332;10.230;2023-07-02T04:45:06;22.60;99.90
45765;DHT22;31474;45.332;10.230;2023-07-02T04:47:36;22.60;99.90
45765;DHT22;31474;45.332;10.230;2023-07-02T04:50:02;22.60;99.90
45765;DHT22;31474;45.332;10.230;2023-07-02T04:52:28;22.70;99.90
45765;DHT22;31474;45.332;10.230;2023-07-02T04:54:53;22.70;99.90
45765;DHT22;31474;45.332;10.230;2023-07-02T04:57:21;22.80;99.90
45765;DHT22;31474;45.332;10.230;2023-07-02T04:59:47;22.90;99.90
45765;DHT22;31474;45.332;10.230;2023-07-02T05:02:13;23.00;99.90
45765;DHT22;31474;45.332;10.230;2023-07-02T05:04:38;23.00;99.90
45765;DHT22;31474;45.332;10.230;2023-07-02T05:07:04;23.10;99.90
45765;DHT22;31474;45.332;10.230;2023-07-02T05:09:30;23.10;99.90
45765;DHT22;31474;45.332;10.230;2023-07-02T05:11:56;23.20;99.90
45765;DHT22;31474;45.332;10.230;2023-07-02T05:14:21;23.20;99.90
45765;DHT22;31474;45.332;10.230;2023-07-02T05:16:48;23.20;99.90
45765;DHT22;31474;45.332;10.230;2023-07-02T05:19:14;23.30;99.90
45765;DHT22;31474;45.332;10.230;2023-07-02T05:21:40;23.20;99.90
45765;DHT22;31474;45.332;10.230;2023-07-02T05:24:05;23.30;99.90
45765;DHT22;31474;45.332;10.230;2023-07-02T05:26:32;23.50;99.90
45765;DHT22;31474;45.332;10.230;2023-07-02T05:28:58;23.50;99.90
45765;DHT22;31474;45.332;10.230;2023-07-02T05:31:24;23.50;99.90
45765;DHT22;31474;45.332;10.230;2023-07-02T05:33:49;23.60;99.90
45765;DHT22;31474;45.332;10.230;2023-07-02T05:36:15;23.70;99.90
45765;DHT22;31474;45.332;10.230;2023-07-02T05:38:41;23.80;99.90
45765;DHT22;31474;45.332;10.230;2023-07-02T05:41:06;23.80;99.90
45765;DHT22;31474;45.332;10.230;2023-07-02T05:43:32;23.90;99.90
45765;DHT22;31474;45.332;10.230;2023-07-02T05:45:59;23.90;99.90
45765;DHT22;31474;45.332;10.230;2023-07-02T05:48:28;23.80;99.90
45765;DHT22;31474;45.332;10.230;2023-07-02T05:50:53;23.90;99.90
45765;DHT22;31474;45.332;10.230;2023-07-02T05:53:19;23.80;99.90
45765;DHT22;31474;45.332;10.230;2023-07-02T05:55:45;24.00;99.90
45765;DHT22;31474;45.332;10.230;2023-07-02T05:58:11;24.10;99.90
45765;DHT22;31474;45.332;10.230;2023-07-02T06:00:36;24.20;99.90
45765;DHT22;31474;45.332;10.230;2023-07-02T06:03:02;24.10;99.90
45765;DHT22;31474;45.332;10.230;2023-07-02T06:05:28;24.30;99.90
45765;DHT22;31474;45.332;10.230;2023-07-02T06:07:54;24.20;99.90
45765;DHT22;31474;45.332;10.230;2023-07-02T06:10:19;24.10;99.90
45765;DHT22;31474;45.332;10.230;2023-07-02T06:12:45;24.10;99.90
45765;DHT22;31474;45.332;10.230;2023-07-02T06:15:11;24.20;99.90
45765;DHT22;31474;45.332;10.230;2023-07-02T06:17:36;24.30;99.90
45765;DHT22;31474;45.332;10.230;2023-07-02T06:20:06;24.40;99.90
45765;DHT22;31474;45.332;10.230;2023-07-02T06:22:31;24.60;99.90
45765;DHT22;31474;45.332;10.230;2023-07-02T06:24:57;24.60;99.90
45765;DHT22;31474;45.332;10.230;2023-07-02T06:27:23;24.70;99.90
45765;DHT22;31474;45.332;10.230;2023-07-02T06:29:48;24.80;99.90
45765;DHT22;31474;45.332;10.230;2023-07-02T06:32:15;24.90;99.90
45765;DHT22;31474;45.332;10.230;2023-07-02T06:34:41;24.90;99.90
45765;DHT22;31474;45.332;10.230;2023-07-02T06:37:07;24.90;99.90
45765;DHT22;31474;45.332;10.230;2023-07-02T06:39:32;25.10;99.90
45765;DHT22;31474;45.332;10.230;2023-07-02T06:41:58;25.00;99.90
45765;DHT22;31474;45.332;10.230;2023-07-02T06:44:24;24.90;99.90
45765;DHT22;31474;45.332;10.230;2023-07-02T06:46:49;25.00;99.90
45765;DHT22;31474;45.332;10.230;2023-07-02T06:49:15;25.00;99.90
45765;DHT22;31474;45.332;10.230;2023-07-02T06:51:41;25.00;99.90
45765;DHT22;31474;45.332;10.230;2023-07-02T06:54:07;25.20;99.90
45765;DHT22;31474;45.332;10.230;2023-07-02T06:56:32;25.30;99.90
45765;DHT22;31474;45.332;10.230;2023-07-02T06:59:00;25.60;99.90
45765;DHT22;31474;45.332;10.230;2023-07-02T07:01:25;25.70;99.90
45765;DHT22;31474;45.332;10.230;2023-07-02T07:03:51;25.80;99.90
45765;DHT22;31474;45.332;10.230;2023-07-02T07:06:17;25.80;99.90
45765;DHT22;31474;45.332;10.230;2023-07-02T07:08:42;25.80;99.90
45765;DHT22;31474;45.332;10.230;2023-07-02T07:11:08;25.90;99.90
45765;DHT22;31474;45.332;10.230;2023-07-02T07:13:34;26.00;99.90
45765;DHT22;31474;45.332;10.230;2023-07-02T07:16:00;26.00;99.90
45765;DHT22;31474;45.332;10.230;2023-07-02T07:18:25;25.90;99.90
45765;DHT22;31474;45.332;10.230;2023-07-02T07:20:51;26.00;99.90
45765;DHT22;31474;45.332;10.230;2023-07-02T07:23:18;26.00;99.90
45765;DHT22;31474;45.332;10.230;2023-07-02T07:25:44;25.80;99.90
45765;DHT22;31474;45.332;10.230;2023-07-02T07:28:10;25.70;99.90
45765;DHT22;31474;45.332;10.230;2023-07-02T07:30:44;25.70;99.90
45765;DHT22;31474;45.332;10.230;2023-07-02T07:33:10;25.80;99.90
45765;DHT22;31474;45.332;10.230;2023-07-02T07:35:36;26.00;99.90
45765;DHT22;31474;45.332;10.230;2023-07-02T07:38:02;26.20;99.90
45765;DHT22;31474;45.332;10.230;2023-07-02T07:40:28;26.40;99.90
45765;DHT22;31474;45.332;10.230;2023-07-02T07:42:54;26.50;99.90
45765;DHT22;31474;45.332;10.230;2023-07-02T07:45:20;26.40;99.90
45765;DHT22;31474;45.332;10.230;2023-07-02T07:47:45;26.40;99.90
45765;DHT22;31474;45.332;10.230;2023-07-02T07:50:11;26.60;99.90
45765;DHT22;31474;45.332;10.230;2023-07-02T07:52:41;26.90;99.90
45765;DHT22;31474;45.332;10.230;2023-07-02T07:55:07;27.10;99.90
45765;DHT22;31474;45.332;10.230;2023-07-02T07:57:37;27.30;99.90
45765;DHT22;31474;45.332;10.230;2023-07-02T08:00:06;27.40;99.90
45765;DHT22;31474;45.332;10.230;2023-07-02T08:02:35;27.20;99.90
45765;DHT22;31474;45.332;10.230;2023-07-02T08:05:01;27.30;99.90
45765;DHT22;31474;45.332;10.230;2023-07-02T08:07:28;27.50;99.90
45765;DHT22;31474;45.332;10.230;2023-07-02T08:09:53;27.40;99.90
45765;DHT22;31474;45.332;10.230;2023-07-02T08:12:19;27.30;99.90
45765;DHT22;31474;45.332;10.230;2023-07-02T08:14:45;27.30;99.90
45765;DHT22;31474;45.332;10.230;2023-07-02T08:17:10;27.20;99.90
45765;DHT22;31474;45.332;10.230;2023-07-02T08:19:36;27.30;99.90
45765;DHT22;31474;45.332;10.230;2023-07-02T08:22:02;27.20;99.90
45765;DHT22;31474;45.332;10.230;2023-07-02T08:24:28;27.00;99.90
45765;DHT22;31474;45.332;10.230;2023-07-02T08:26:56;26.80;99.90
45765;DHT22;31474;45.332;10.230;2023-07-02T08:29:21;26.90;99.90
45765;DHT22;31474;45.332;10.230;2023-07-02T08:31:47;27.10;99.90
45765;DHT22;31474;45.332;10.230;2023-07-02T08:34:13;27.10;99.90
45765;DHT22;31474;45.332;10.230;2023-07-02T08:36:38;27.20;99.90
45765;DHT22;31474;45.332;10.230;2023-07-02T08:39:04;27.40;99.90
45765;DHT22;31474;45.332;10.230;2023-07-02T08:41:30;27.60;99.90
45765;DHT22;31474;45.332;10.230;2023-07-02T08:43:59;27.70;99.90
45765;DHT22;31474;45.332;10.230;2023-07-02T08:46:25;27.70;99.90
45765;DHT22;31474;45.332;10.230;2023-07-02T08:48:50;27.60;99.90
45765;DHT22;31474;45.332;10.230;2023-07-02T08:51:16;27.70;99.90
45765;DHT22;31474;45.332;10.230;2023-07-02T08:53:42;27.80;99.90
45765;DHT22;31474;45.332;10.230;2023-07-02T08:56:08;27.70;99.90
45765;DHT22;31474;45.332;10.230;2023-07-02T08:58:33;27.80;99.90
45765;DHT22;31474;45.332;10.230;2023-07-02T09:01:10;27.80;99.90
45765;DHT22;31474;45.332;10.230;2023-07-02T09:03:37;27.80;99.90
45765;DHT22;31474;45.332;10.230;2023-07-02T09:06:07;27.70;99.90
45765;DHT22;31474;45.332;10.230;2023-07-02T09:08:33;27.70;99.90
45765;DHT22;31474;45.332;10.230;2023-07-02T09:16:27;28.50;99.90
45765;DHT22;31474;45.332;10.230;2023-07-02T09:19:01;28.60;99.90
45765;DHT22;31474;45.332;10.230;2023-07-02T09:21:47;28.70;99.90
45765;DHT22;31474;45.332;10.230;2023-07-02T09:24:14;28.70;99.90
45765;DHT22;31474;45.332;10.230;2023-07-02T09:26:47;28.80;99.90
45765;DHT22;31474;45.332;10.230;2023-07-02T09:29:23;28.90;99.90
45765;DHT22;31474;45.332;10.230;2023-07-02T09:31:49;28.80;99.90
45765;DHT22;31474;45.332;10.230;2023-07-02T09:34:15;28.70;99.90
45765;DHT22;31474;45.332;10.230;2023-07-02T09:36:43;28.70;99.90
45765;DHT22;31474;45.332;10.230;2023-07-02T09:39:12;28.80;99.90
45765;DHT22;31474;45.332;10.230;2023-07-02T09:41:41;29.00;99.90
45765;DHT22;31474;45.332;10.230;2023-07-02T09:44:11;29.00;99.90
45765;DHT22;31474;45.332;10.230;2023-07-02T09:46:41;29.10;99.90
45765;DHT22;31474;45.332;10.230;2023-07-02T09:49:12;29.00;99.90
45765;DHT22;31474;45.332;10.230;2023-07-02T09:51:39;29.20;99.90
45765;DHT22;31474;45.332;10.230;2023-07-02T09:54:05;29.20;99.90
45765;DHT22;31474;45.332;10.230;2023-07-02T09:56:31;29.10;99.90
45765;DHT22;31474;45.332;10.230;2023-07-02T09:58:57;29.20;99.90
45765;DHT22;31474;45.332;10.230;2023-07-02T10:01:23;29.10;99.90
45765;DHT22;31474;45.332;10.230;2023-07-02T10:03:48;29.20;99.90
45765;DHT22;31474;45.332;10.230;2023-07-02T10:06:14;29.30;99.90
45765;DHT22;31474;45.332;10.230;2023-07-02T10:08:40;29.30;99.90
45765;DHT22;31474;45.332;10.230;2023-07-02T10:11:12;29.40;99.90
45765;DHT22;31474;45.332;10.230;2023-07-02T10:13:39;29.40;99.90
45765;DHT22;31474;45.332;10.230;2023-07-02T10:16:05;29.50;99.90
45765;DHT22;31474;45.332;10.230;2023-07-02T10:18:32;29.70;99.90
45765;DHT22;31474;45.332;10.230;2023-07-02T10:20:58;29.80;99.90
45765;DHT22;31474;45.332;10.230;2023-07-02T10:23:35;30.00;99.90
45765;DHT22;31474;45.332;10.230;2023-07-02T10:28:40;29.70;99.90
45765;DHT22;31474;45.332;10.230;2023-07-02T10:31:18;29.50;99.90
45765;DHT22;31474;45.332;10.230;2023-07-02T10:33:44;29.30;99.90
45765;DHT22;31474;45.332;10.230;2023-07-02T10:36:21;29.20;99.90
45765;DHT22;31474;45.332;10.230;2023-07-02T10:38:49;29.40;99.90
45765;DHT22;31474;45.332;10.230;2023-07-02T10:41:28;29.80;99.90
45765;DHT22;31474;45.332;10.230;2023-07-02T10:44:04;29.90;99.90
45765;DHT22;31474;45.332;10.230;2023-07-02T10:46:30;29.90;99.90
45765;DHT22;31474;45.332;10.230;2023-07-02T10:48:56;29.80;99.90
45765;DHT22;31474;45.332;10.230;2023-07-02T10:51:22;29.60;99.90
45765;DHT22;31474;45.332;10.230;2023-07-02T10:54:02;29.40;99.90
45765;DHT22;31474;45.332;10.230;2023-07-02T10:56:30;29.20;99.90
45765;DHT22;31474;45.332;10.230;2023-07-02T10:58:56;29.20;99.90
45765;DHT22;31474;45.332;10.230;2023-07-02T11:01:30;29.10;99.90
45765;DHT22;31474;45.332;10.230;2023-07-02T11:03:58;28.90;99.90
45765;DHT22;31474;45.332;10.230;2023-07-02T11:06:25;28.80;99.90
45765;DHT22;31474;45.332;10.230;2023-07-02T11:08:52;28.70;99.90
45765;DHT22;31474;45.332;10.230;2023-07-02T11:11:17;28.70;99.90
45765;DHT22;31474;45.332;10.230;2023-07-02T11:13:47;28.60;99.90
45765;DHT22;31474;45.332;10.230;2023-07-02T11:16:26;28.60;99.90
45765;DHT22;31474;45.332;10.230;2023-07-02T11:19:07;28.60;99.90
45765;DHT22;31474;45.332;10.230;2023-07-02T11:21:34;28.80;99.90
45765;DHT22;31474;45.332;10.230;2023-07-02T11:24:07;28.70;99.90
45765;DHT22;31474;45.332;10.230;2023-07-02T11:26:37;28.80;99.90
45765;DHT22;31474;45.332;10.230;2023-07-02T11:29:02;28.80;99.90
45765;DHT22;31474;45.332;10.230;2023-07-02T11:31:28;28.90;99.90
45765;DHT22;31474;45.332;10.230;2023-07-02T11:33:54;28.90;99.90
45765;DHT22;31474;45.332;10.230;2023-07-02T11:36:22;28.90;99.90
45765;DHT22;31474;45.332;10.230;2023-07-02T11:38:49;29.10;99.90
45765;DHT22;31474;45.332;10.230;2023-07-02T11:41:16;29.20;99.90
45765;DHT22;31474;45.332;10.230;2023-07-02T11:43:41;29.10;99.90
45765;DHT22;31474;45.332;10.230;2023-07-02T11:46:07;29.30;99.90
45765;DHT22;31474;45.332;10.230;2023-07-02T11:48:33;29.60;99.90
45765;DHT22;31474;45.332;10.230;2023-07-02T11:50:58;29.70;99.90
45765;DHT22;31474;45.332;10.230;2023-07-02T11:53:24;29.70;99.90
45765;DHT22;31474;45.332;10.230;2023-07-02T11:55:50;29.70;99.90
45765;DHT22;31474;45.332;10.230;2023-07-02T11:58:16;29.70;99.90
45765;DHT22;31474;45.332;10.230;2023-07-02T12:00:41;29.90;99.90
45765;DHT22;31474;45.332;10.230;2023-07-02T12:03:07;30.00;99.90
45765;DHT22;31474;45.332;10.230;2023-07-02T12:05:33;30.20;99.90
45765;DHT22;31474;45.332;10.230;2023-07-02T12:07:59;30.20;99.90
45765;DHT22;31474;45.332;10.230;2023-07-02T12:10:24;29.90;99.90
45765;DHT22;31474;45.332;10.230;2023-07-02T12:12:50;29.90;99.90
45765;DHT22;31474;45.332;10.230;2023-07-02T12:15:16;30.00;99.90
45765;DHT22;31474;45.332;10.230;2023-07-02T12:17:41;30.20;99.90
45765;DHT22;31474;45.332;10.230;2023-07-02T12:20:07;30.20;99.90
45765;DHT22;31474;45.332;10.230;2023-07-02T12:22:33;30.20;99.90
45765;DHT22;31474;45.332;10.230;2023-07-02T12:24:59;30.30;99.90
45765;DHT22;31474;45.332;10.230;2023-07-02T12:27:25;30.10;99.90
45765;DHT22;31474;45.332;10.230;2023-07-02T12:29:52;30.10;99.90
45765;DHT22;31474;45.332;10.230;2023-07-02T12:32:18;30.20;99.90
45765;DHT22;31474;45.332;10.230;2023-07-02T12:34:44;30.10;99.90
45765;DHT22;31474;45.332;10.230;2023-07-02T12:37:09;30.00;99.90
45765;DHT22;31474;45.332;10.230;2023-07-02T12:39:35;29.80;99.90
45765;DHT22;31474;45.332;10.230;2023-07-02T12:42:01;29.70;99.90
45765;DHT22;31474;45.332;10.230;2023-07-02T12:44:26;29.70;99.90
45765;DHT22;31474;45.332;10.230;2023-07-02T12:46:52;29.60;99.90
45765;DHT22;31474;45.332;10.230;2023-07-02T12:49:18;29.50;99.90
45765;DHT22;31474;45.332;10.230;2023-07-02T12:51:43;29.70;99.90
45765;DHT22;31474;45.332;10.230;2023-07-02T12:54:09;29.70;99.40
45765;DHT22;31474;45.332;10.230;2023-07-02T12:56:34;29.80;99.50
45765;DHT22;31474;45.332;10.230;2023-07-02T12:59:02;30.00;99.90
45765;DHT22;31474;45.332;10.230;2023-07-02T13:01:28;30.10;99.70
45765;DHT22;31474;45.332;10.230;2023-07-02T13:03:53;30.30;99.90
45765;DHT22;31474;45.332;10.230;2023-07-02T13:06:19;30.50;99.90
45765;DHT22;31474;45.332;10.230;2023-07-02T13:08:45;30.60;99.30
45765;DHT22;31474;45.332;10.230;2023-07-02T13:11:10;30.60;99.60
45765;DHT22;31474;45.332;10.230;2023-07-02T13:13:36;30.70;99.40
45765;DHT22;31474;45.332;10.230;2023-07-02T13:16:02;30.70;99.40
45765;DHT22;31474;45.332;10.230;2023-07-02T13:18:28;30.60;99.00
45765;DHT22;31474;45.332;10.230;2023-07-02T13:20:54;30.60;99.00
45765;DHT22;31474;45.332;10.230;2023-07-02T13:23:19;30.50;98.90
45765;DHT22;31474;45.332;10.230;2023-07-02T13:25:45;30.50;99.00
45765;DHT22;31474;45.332;10.230;2023-07-02T13:28:11;30.60;98.80
45765;DHT22;31474;45.332;10.230;2023-07-02T13:30:37;30.60;99.00
45765;DHT22;31474;45.332;10.230;2023-07-02T13:33:03;30.70;98.90
45765;DHT22;31474;45.332;10.230;2023-07-02T13:35:28;30.70;98.60
45765;DHT22;31474;45.332;10.230;2023-07-02T13:37:54;30.80;99.10
45765;DHT22;31474;45.332;10.230;2023-07-02T13:40:20;30.80;99.00
45765;DHT22;31474;45.332;10.230;2023-07-02T13:42:46;30.90;98.70
45765;DHT22;31474;45.332;10.230;2023-07-02T13:45:12;30.80;98.30
45765;DHT22;31474;45.332;10.230;2023-07-02T13:47:38;30.90;98.80
45765;DHT22;31474;45.332;10.230;2023-07-02T13:50:04;30.90;98.40
45765;DHT22;31474;45.332;10.230;2023-07-02T13:52:30;31.00;98.70
45765;DHT22;31474;45.332;10.230;2023-07-02T13:54:56;31.10;98.80
45765;DHT22;31474;45.332;10.230;2023-07-02T13:57:22;31.10;99.40
45765;DHT22;31474;45.332;10.230;2023-07-02T13:59:47;31.20;99.10
45765;DHT22;31474;45.332;10.230;2023-07-02T14:02:13;31.20;98.60
45765;DHT22;31474;45.332;10.230;2023-07-02T14:04:39;31.10;98.00
45765;DHT22;31474;45.332;10.230;2023-07-02T14:07:05;31.10;98.50
45765;DHT22;31474;45.332;10.230;2023-07-02T14:09:31;31.10;98.10
45765;DHT22;31474;45.332;10.230;2023-07-02T14:11:56;31.10;98.30
45765;DHT22;31474;45.332;10.230;2023-07-02T14:14:22;31.10;98.00
45765;DHT22;31474;45.332;10.230;2023-07-02T14:16:48;31.20;98.60
45765;DHT22;31474;45.332;10.230;2023-07-02T14:19:14;31.20;98.40
45765;DHT22;31474;45.332;10.230;2023-07-02T14:21:40;31.20;98.40
45765;DHT22;31474;45.332;10.230;2023-07-02T14:24:06;31.20;98.40
45765;DHT22;31474;45.332;10.230;2023-07-02T14:26:31;31.20;98.60
45765;DHT22;31474;45.332;10.230;2023-07-02T14:28:57;31.10;98.00
45765;DHT22;31474;45.332;10.230;2023-07-02T14:31:23;31.10;98.10
45765;DHT22;31474;45.332;10.230;2023-07-02T14:33:49;31.20;97.90
45765;DHT22;31474;45.332;10.230;2023-07-02T14:36:15;31.20;97.80
45765;DHT22;31474;45.332;10.230;2023-07-02T14:38:41;31.10;97.60
45765;DHT22;31474;45.332;10.230;2023-07-02T14:41:07;31.10;97.50
45765;DHT22;31474;45.332;10.230;2023-07-02T14:43:32;31.10;98.10
45765;DHT22;31474;45.332;10.230;2023-07-02T14:45:59;31.00;97.90
45765;DHT22;31474;45.332;10.230;2023-07-02T14:48:26;31.00;97.40
45765;DHT22;31474;45.332;10.230;2023-07-02T14:50:54;31.00;98.30
45765;DHT22;31474;45.332;10.230;2023-07-02T14:53:21;30.90;97.30
45765;DHT22;31474;45.332;10.230;2023-07-02T14:55:47;30.90;97.30
45765;DHT22;31474;45.332;10.230;2023-07-02T14:58:15;30.90;97.50
45765;DHT22;31474;45.332;10.230;2023-07-02T15:00:46;30.90;98.00
45765;DHT22;31474;45.332;10.230;2023-07-02T15:03:12;31.00;97.70
45765;DHT22;31474;45.332;10.230;2023-07-02T15:05:38;31.00;98.10
45765;DHT22;31474;45.332;10.230;2023-07-02T15:08:05;31.00;97.40
45765;DHT22;31474;45.332;10.230;2023-07-02T15:10:31;31.00;97.70
45765;DHT22;31474;45.332;10.230;2023-07-02T15:12:57;30.90;97.10
45765;DHT22;31474;45.332;10.230;2023-07-02T15:15:22;30.90;97.80
45765;DHT22;31474;45.332;10.230;2023-07-02T15:17:48;30.90;97.20
45765;DHT22;31474;45.332;10.230;2023-07-02T15:20:14;30.80;97.10